sensor_id;sensor_type;location;lat;lon;timestamp;P1;durP1;ratioP1;P2;durP2;ratioP2
66327;SDS011;53133;52.862;6.602;2022-11-15T00:01:34;29.17;;;18.52;;
66327;SDS011;53133;52.862;6.602;2022-11-15T00:04:02;30.48;;;18.63;;
66327;SDS011;53133;52.862;6.602;2022-11-15T00:06:28;29.20;;;17.83;;
66327;SDS011;53133;52.862;6.602;2022-11-15T00:08:54;30.52;;;18.58;;
66327;SDS011;53133;52.862;6.602;2022-11-15T00:11:22;28.42;;;18.88;;
66327;SDS011;53133;52.862;6.602;2022-11-15T00:13:47;27.52;;;18.25;;
66327;SDS011;53133;52.862;6.602;2022-11-15T00:16:13;27.20;;;16.75;;
66327;SDS011;53133;52.862;6.602;2022-11-15T00:18:39;27.50;;;18.23;;
66327;SDS011;53133;52.862;6.602;2022-11-15T00:21:05;26.38;;;16.17;;
66327;SDS011;53133;52.862;6.602;2022-11-15T00:23:32;24.85;;;15.43;;
66327;SDS011;53133;52.862;6.602;2022-11-15T00:25:59;26.65;;;16.45;;
66327;SDS011;53133;52.862;6.602;2022-11-15T00:28:25;25.52;;;16.40;;
66327;SDS011;53133;52.862;6.602;2022-11-15T00:30:51;24.23;;;16.38;;
66327;SDS011;53133;52.862;6.602;2022-11-15T00:33:16;24.65;;;16.25;;
66327;SDS011;53133;52.862;6.602;2022-11-15T00:35:42;26.67;;;16.67;;
66327;SDS011;53133;52.862;6.602;2022-11-15T00:38:08;25.50;;;16.23;;
66327;SDS011;53133;52.862;6.602;2022-11-15T00:40:36;27.25;;;16.58;;
66327;SDS011;53133;52.862;6.602;2022-11-15T00:43:02;26.02;;;16.77;;
66327;SDS011;53133;52.862;6.602;2022-11-15T00:45:28;26.90;;;16.20;;
66327;SDS011;53133;52.862;6.602;2022-11-15T00:47:53;25.65;;;16.48;;
66327;SDS011;53133;52.862;6.602;2022-11-15T00:50:19;25.35;;;16.20;;
66327;SDS011;53133;52.862;6.602;2022-11-15T00:52:44;29.23;;;16.55;;
66327;SDS011;53133;52.862;6.602;2022-11-15T00:55:14;27.60;;;16.88;;
66327;SDS011;53133;52.862;6.602;2022-11-15T00:57:41;30.70;;;16.93;;
66327;SDS011;53133;52.862;6.602;2022-11-15T01:00:07;29.70;;;16.60;;
66327;SDS011;53133;52.862;6.602;2022-11-15T01:02:33;28.02;;;16.70;;
66327;SDS011;53133;52.862;6.602;2022-11-15T01:04:59;27.05;;;15.82;;
66327;SDS011;53133;52.862;6.602;2022-11-15T01:07:25;28.70;;;16.90;;
66327;SDS011;53133;52.862;6.602;2022-11-15T01:09:50;30.00;;;16.63;;
66327;SDS011;53133;52.862;6.602;2022-11-15T01:12:16;30.75;;;16.92;;
66327;SDS011;53133;52.862;6.602;2022-11-15T01:14:41;29.88;;;17.33;;
66327;SDS011;53133;52.862;6.602;2022-11-15T01:17:07;29.15;;;17.00;;
66327;SDS011;53133;52.862;6.602;2022-11-15T01:19:33;28.27;;;16.08;;
66327;SDS011;53133;52.862;6.602;2022-11-15T01:21:58;28.63;;;17.05;;
66327;SDS011;53133;52.862;6.602;2022-11-15T01:24:24;30.95;;;16.98;;
66327;SDS011;53133;52.862;6.602;2022-11-15T01:26:50;29.20;;;16.88;;
66327;SDS011;53133;52.862;6.602;2022-11-15T01:29:15;34.20;;;18.15;;
66327;SDS011;53133;52.862;6.602;2022-11-15T01:31:41;34.42;;;17.33;;
66327;SDS011;53133;52.862;6.602;2022-11-15T01:34:06;29.10;;;16.45;;
66327;SDS011;53133;52.862;6.602;2022-11-15T01:36:32;29.83;;;17.52;;
66327;SDS011;53133;52.862;6.602;2022-11-15T01:38:58;31.08;;;17.40;;
66327;SDS011;53133;52.862;6.602;2022-11-15T01:41:25;31.92;;;18.08;;
66327;SDS011;53133;52.862;6.602;2022-11-15T01:43:54;28.75;;;16.80;;
66327;SDS011;53133;52.862;6.602;2022-11-15T01:48:46;28.80;;;16.63;;
66327;SDS011;53133;52.862;6.602;2022-11-15T01:51:13;28.02;;;16.73;;
66327;SDS011;53133;52.862;6.602;2022-11-15T01:53:41;29.15;;;17.58;;
66327;SDS011;53133;52.862;6.602;2022-11-15T01:56:11;29.98;;;16.30;;
66327;SDS011;53133;52.862;6.602;2022-11-15T01:58:40;29.88;;;16.92;;
66327;SDS011;53133;52.862;6.602;2022-11-15T02:01:07;27.55;;;16.42;;
66327;SDS011;53133;52.862;6.602;2022-11-15T02:03:34;31.30;;;18.08;;
66327;SDS011;53133;52.862;6.602;2022-11-15T02:06:06;29.48;;;16.70;;
66327;SDS011;53133;52.862;6.602;2022-11-15T02:08:32;28.40;;;15.95;;
66327;SDS011;53133;52.862;6.602;2022-11-15T02:10:58;29.05;;;17.17;;
66327;SDS011;53133;52.862;6.602;2022-11-15T02:13:23;28.88;;;16.52;;
66327;SDS011;53133;52.862;6.602;2022-11-15T02:16:13;31.38;;;16.50;;
66327;SDS011;53133;52.862;6.602;2022-11-15T02:22:07;30.92;;;16.58;;
66327;SDS011;53133;52.862;6.602;2022-11-15T02:25:08;27.65;;;16.20;;
66327;SDS011;53133;52.862;6.602;2022-11-15T02:30:41;29.30;;;15.93;;
66327;SDS011;53133;52.862;6.602;2022-11-15T02:36:01;32.15;;;16.83;;
66327;SDS011;53133;52.862;6.602;2022-11-15T02:38:37;31.60;;;16.20;;
66327;SDS011;53133;52.862;6.602;2022-11-15T02:41:23;28.98;;;16.33;;
66327;SDS011;53133;52.862;6.602;2022-11-15T02:44:07;33.47;;;16.67;;
66327;SDS011;53133;52.862;6.602;2022-11-15T02:46:53;35.58;;;17.50;;
66327;SDS011;53133;52.862;6.602;2022-11-15T02:49:50;37.00;;;17.60;;
66327;SDS011;53133;52.862;6.602;2022-11-15T02:52:19;36.33;;;18.40;;
66327;SDS011;53133;52.862;6.602;2022-11-15T02:54:53;39.03;;;18.33;;
66327;SDS011;53133;52.862;6.602;2022-11-15T02:57:24;37.00;;;18.45;;
66327;SDS011;53133;52.862;6.602;2022-11-15T03:05:34;41.00;;;18.50;;
66327;SDS011;53133;52.862;6.602;2022-11-15T03:08:02;39.50;;;20.15;;
66327;SDS011;53133;52.862;6.602;2022-11-15T03:11:20;41.97;;;20.17;;
66327;SDS011;53133;52.862;6.602;2022-11-15T03:13:40;40.50;;;19.08;;
66327;SDS011;53133;52.862;6.602;2022-11-15T03:21:59;42.05;;;19.85;;
66327;SDS011;53133;52.862;6.602;2022-11-15T03:24:28;38.53;;;19.23;;
66327;SDS011;53133;52.862;6.602;2022-11-15T03:26:58;43.88;;;21.10;;
66327;SDS011;53133;52.862;6.602;2022-11-15T03:29:35;45.22;;;20.48;;
66327;SDS011;53133;52.862;6.602;2022-11-15T03:32:16;48.15;;;20.55;;
66327;SDS011;53133;52.862;6.602;2022-11-15T03:34:50;45.20;;;21.20;;
66327;SDS011;53133;52.862;6.602;2022-11-15T03:37:21;49.03;;;20.98;;
66327;SDS011;53133;52.862;6.602;2022-11-15T03:39:48;42.35;;;19.98;;
66327;SDS011;53133;52.862;6.602;2022-11-15T03:42:22;51.08;;;22.65;;
66327;SDS011;53133;52.862;6.602;2022-11-15T03:44:59;43.25;;;21.75;;
66327;SDS011;53133;52.862;6.602;2022-11-15T03:47:36;46.92;;;22.17;;
66327;SDS011;53133;52.862;6.602;2022-11-15T03:50:10;43.13;;;21.73;;
66327;SDS011;53133;52.862;6.602;2022-11-15T03:52:40;44.30;;;21.48;;
66327;SDS011;53133;52.862;6.602;2022-11-15T03:55:08;48.45;;;22.23;;
66327;SDS011;53133;52.862;6.602;2022-11-15T03:57:36;45.65;;;22.85;;
66327;SDS011;53133;52.862;6.602;2022-11-15T04:00:05;50.22;;;22.05;;
66327;SDS011;53133;52.862;6.602;2022-11-15T04:02:31;51.53;;;23.50;;
66327;SDS011;53133;52.862;6.602;2022-11-15T04:04:56;47.92;;;23.52;;
66327;SDS011;53133;52.862;6.602;2022-11-15T04:07:22;49.17;;;21.98;;
66327;SDS011;53133;52.862;6.602;2022-11-15T04:09:47;50.05;;;23.35;;
66327;SDS011;53133;52.862;6.602;2022-11-15T04:12:32;53.80;;;24.10;;
66327;SDS011;53133;52.862;6.602;2022-11-15T04:15:06;48.28;;;24.08;;
66327;SDS011;53133;52.862;6.602;2022-11-15T04:17:37;47.80;;;24.13;;
66327;SDS011;53133;52.862;6.602;2022-11-15T04:20:05;46.70;;;23.05;;
66327;SDS011;53133;52.862;6.602;2022-11-15T04:22:57;50.30;;;24.13;;
66327;SDS011;53133;52.862;6.602;2022-11-15T04:25:42;52.17;;;24.80;;
66327;SDS011;53133;52.862;6.602;2022-11-15T04:28:09;51.95;;;24.65;;
66327;SDS011;53133;52.862;6.602;2022-11-15T04:30:35;53.05;;;25.40;;
66327;SDS011;53133;52.862;6.602;2022-11-15T04:33:00;54.88;;;24.85;;
66327;SDS011;53133;52.862;6.602;2022-11-15T04:35:26;50.38;;;24.10;;
66327;SDS011;53133;52.862;6.602;2022-11-15T04:37:52;49.53;;;25.02;;
66327;SDS011;53133;52.862;6.602;2022-11-15T04:40:18;51.90;;;24.25;;
66327;SDS011;53133;52.862;6.602;2022-11-15T04:42:43;54.38;;;24.88;;
66327;SDS011;53133;52.862;6.602;2022-11-15T04:45:09;55.95;;;24.05;;
66327;SDS011;53133;52.862;6.602;2022-11-15T04:47:35;53.03;;;23.98;;
66327;SDS011;53133;52.862;6.602;2022-11-15T04:50:01;52.38;;;25.83;;
66327;SDS011;53133;52.862;6.602;2022-11-15T04:52:26;54.15;;;25.52;;
66327;SDS011;53133;52.862;6.602;2022-11-15T04:54:52;55.53;;;25.33;;
66327;SDS011;53133;52.862;6.602;2022-11-15T04:57:17;55.78;;;26.85;;
66327;SDS011;53133;52.862;6.602;2022-11-15T04:59:43;53.90;;;24.52;;
66327;SDS011;53133;52.862;6.602;2022-11-15T05:02:09;58.55;;;26.55;;
66327;SDS011;53133;52.862;6.602;2022-11-15T05:04:34;57.13;;;26.88;;
66327;SDS011;53133;52.862;6.602;2022-11-15T05:07:00;57.20;;;25.73;;
66327;SDS011;53133;52.862;6.602;2022-11-15T05:09:26;57.55;;;27.38;;
66327;SDS011;53133;52.862;6.602;2022-11-15T05:11:51;55.55;;;27.27;;
66327;SDS011;53133;52.862;6.602;2022-11-15T05:14:17;60.92;;;27.60;;
66327;SDS011;53133;52.862;6.602;2022-11-15T05:16:42;59.08;;;28.67;;
66327;SDS011;53133;52.862;6.602;2022-11-15T05:19:08;57.47;;;27.30;;
66327;SDS011;53133;52.862;6.602;2022-11-15T05:21:34;55.00;;;26.90;;
66327;SDS011;53133;52.862;6.602;2022-11-15T05:24:00;55.72;;;27.10;;
66327;SDS011;53133;52.862;6.602;2022-11-15T05:26:26;55.20;;;26.10;;
66327;SDS011;53133;52.862;6.602;2022-11-15T05:28:56;54.65;;;25.65;;
66327;SDS011;53133;52.862;6.602;2022-11-15T05:31:22;51.13;;;26.52;;
66327;SDS011;53133;52.862;6.602;2022-11-15T05:33:49;47.05;;;24.88;;
66327;SDS011;53133;52.862;6.602;2022-11-15T05:39:04;43.55;;;24.83;;
66327;SDS011;53133;52.862;6.602;2022-11-15T05:41:34;51.55;;;24.70;;
66327;SDS011;53133;52.862;6.602;2022-11-15T05:44:04;52.58;;;24.90;;
66327;SDS011;53133;52.862;6.602;2022-11-15T05:46:32;48.67;;;23.75;;
66327;SDS011;53133;52.862;6.602;2022-11-15T05:48:58;44.60;;;24.00;;
66327;SDS011;53133;52.862;6.602;2022-11-15T05:51:24;44.65;;;24.58;;
66327;SDS011;53133;52.862;6.602;2022-11-15T05:53:53;43.58;;;23.15;;
66327;SDS011;53133;52.862;6.602;2022-11-15T05:56:21;39.92;;;23.13;;
66327;SDS011;53133;52.862;6.602;2022-11-15T05:58:47;42.00;;;23.20;;
66327;SDS011;53133;52.862;6.602;2022-11-15T06:01:13;44.75;;;23.52;;
66327;SDS011;53133;52.862;6.602;2022-11-15T06:03:39;42.15;;;23.50;;
66327;SDS011;53133;52.862;6.602;2022-11-15T06:06:04;42.45;;;24.27;;
66327;SDS011;53133;52.862;6.602;2022-11-15T06:08:30;48.85;;;24.17;;
66327;SDS011;53133;52.862;6.602;2022-11-15T06:10:56;43.03;;;24.00;;
66327;SDS011;53133;52.862;6.602;2022-11-15T06:13:21;48.50;;;24.30;;
66327;SDS011;53133;52.862;6.602;2022-11-15T06:15:47;45.10;;;23.33;;
66327;SDS011;53133;52.862;6.602;2022-11-15T06:18:12;43.30;;;23.63;;
66327;SDS011;53133;52.862;6.602;2022-11-15T06:20:38;38.70;;;22.48;;
66327;SDS011;53133;52.862;6.602;2022-11-15T06:23:04;45.30;;;24.08;;
66327;SDS011;53133;52.862;6.602;2022-11-15T06:25:30;46.97;;;23.25;;
66327;SDS011;53133;52.862;6.602;2022-11-15T06:27:57;44.63;;;23.17;;
66327;SDS011;53133;52.862;6.602;2022-11-15T06:30:23;44.95;;;24.65;;
66327;SDS011;53133;52.862;6.602;2022-11-15T06:32:50;46.13;;;23.25;;
66327;SDS011;53133;52.862;6.602;2022-11-15T06:35:16;40.55;;;22.70;;
66327;SDS011;53133;52.862;6.602;2022-11-15T06:37:42;44.13;;;23.83;;
66327;SDS011;53133;52.862;6.602;2022-11-15T06:40:08;45.33;;;23.35;;
66327;SDS011;53133;52.862;6.602;2022-11-15T06:42:34;42.47;;;22.13;;
66327;SDS011;53133;52.862;6.602;2022-11-15T06:45:00;41.83;;;22.35;;
66327;SDS011;53133;52.862;6.602;2022-11-15T06:47:26;41.67;;;22.52;;
66327;SDS011;53133;52.862;6.602;2022-11-15T06:49:52;44.70;;;21.80;;
66327;SDS011;53133;52.862;6.602;2022-11-15T06:52:17;41.00;;;22.40;;
66327;SDS011;53133;52.862;6.602;2022-11-15T06:54:44;44.53;;;22.00;;
66327;SDS011;53133;52.862;6.602;2022-11-15T06:57:10;43.00;;;22.48;;
66327;SDS011;53133;52.862;6.602;2022-11-15T06:59:36;40.40;;;22.80;;
66327;SDS011;53133;52.862;6.602;2022-11-15T07:02:02;39.70;;;23.23;;
66327;SDS011;53133;52.862;6.602;2022-11-15T07:04:27;40.78;;;21.50;;
66327;SDS011;53133;52.862;6.602;2022-11-15T07:06:53;38.90;;;21.45;;
66327;SDS011;53133;52.862;6.602;2022-11-15T07:09:19;36.47;;;21.85;;
66327;SDS011;53133;52.862;6.602;2022-11-15T07:11:44;36.47;;;21.73;;
66327;SDS011;53133;52.862;6.602;2022-11-15T07:14:10;37.85;;;21.08;;
66327;SDS011;53133;52.862;6.602;2022-11-15T07:16:36;36.92;;;21.17;;
66327;SDS011;53133;52.862;6.602;2022-11-15T07:19:02;34.85;;;20.38;;
66327;SDS011;53133;52.862;6.602;2022-11-15T07:21:28;35.85;;;20.23;;
66327;SDS011;53133;52.862;6.602;2022-11-15T07:23:53;34.38;;;19.98;;
66327;SDS011;53133;52.862;6.602;2022-11-15T07:26:19;30.85;;;19.58;;
66327;SDS011;53133;52.862;6.602;2022-11-15T07:28:45;35.22;;;19.92;;
66327;SDS011;53133;52.862;6.602;2022-11-15T07:31:11;37.90;;;20.73;;
66327;SDS011;53133;52.862;6.602;2022-11-15T07:33:36;33.35;;;20.27;;
66327;SDS011;53133;52.862;6.602;2022-11-15T07:36:03;33.33;;;19.77;;
66327;SDS011;53133;52.862;6.602;2022-11-15T07:38:30;33.25;;;20.20;;
66327;SDS011;53133;52.862;6.602;2022-11-15T07:40:57;34.25;;;20.50;;
66327;SDS011;53133;52.862;6.602;2022-11-15T07:43:26;34.50;;;20.73;;
66327;SDS011;53133;52.862;6.602;2022-11-15T07:45:53;34.42;;;20.63;;
66327;SDS011;53133;52.862;6.602;2022-11-15T07:48:19;31.38;;;19.25;;
66327;SDS011;53133;52.862;6.602;2022-11-15T07:50:44;32.17;;;20.13;;
66327;SDS011;53133;52.862;6.602;2022-11-15T07:53:10;29.90;;;18.30;;
66327;SDS011;53133;52.862;6.602;2022-11-15T07:55:36;28.13;;;18.13;;
66327;SDS011;53133;52.862;6.602;2022-11-15T07:58:02;35.13;;;18.88;;
66327;SDS011;53133;52.862;6.602;2022-11-15T08:00:29;34.25;;;19.63;;
66327;SDS011;53133;52.862;6.602;2022-11-15T08:03:05;28.45;;;18.80;;
66327;SDS011;53133;52.862;6.602;2022-11-15T08:05:32;31.63;;;18.90;;
66327;SDS011;53133;52.862;6.602;2022-11-15T08:07:59;32.33;;;19.40;;
66327;SDS011;53133;52.862;6.602;2022-11-15T08:10:25;27.17;;;17.58;;
66327;SDS011;53133;52.862;6.602;2022-11-15T08:12:58;31.52;;;19.92;;
66327;SDS011;53133;52.862;6.602;2022-11-15T08:15:24;30.90;;;18.90;;
66327;SDS011;53133;52.862;6.602;2022-11-15T08:17:54;31.52;;;19.20;;
66327;SDS011;53133;52.862;6.602;2022-11-15T08:20:26;30.52;;;18.50;;
66327;SDS011;53133;52.862;6.602;2022-11-15T08:22:55;28.92;;;18.98;;
66327;SDS011;53133;52.862;6.602;2022-11-15T08:25:21;30.58;;;19.75;;
66327;SDS011;53133;52.862;6.602;2022-11-15T08:27:47;33.97;;;20.40;;
66327;SDS011;53133;52.862;6.602;2022-11-15T08:30:16;32.13;;;18.83;;
66327;SDS011;53133;52.862;6.602;2022-11-15T08:32:42;31.02;;;18.98;;
66327;SDS011;53133;52.862;6.602;2022-11-15T08:35:07;33.08;;;18.48;;
66327;SDS011;53133;52.862;6.602;2022-11-15T08:37:33;30.02;;;18.67;;
66327;SDS011;53133;52.862;6.602;2022-11-15T08:39:59;30.08;;;19.23;;
66327;SDS011;53133;52.862;6.602;2022-11-15T08:42:24;33.65;;;18.95;;
66327;SDS011;53133;52.862;6.602;2022-11-15T08:44:50;28.80;;;18.42;;
66327;SDS011;53133;52.862;6.602;2022-11-15T08:47:18;32.65;;;19.95;;
66327;SDS011;53133;52.862;6.602;2022-11-15T08:49:44;32.97;;;19.67;;
66327;SDS011;53133;52.862;6.602;2022-11-15T08:52:09;31.63;;;19.67;;
66327;SDS011;53133;52.862;6.602;2022-11-15T08:54:35;33.25;;;19.20;;
66327;SDS011;53133;52.862;6.602;2022-11-15T08:57:00;33.05;;;19.17;;
66327;SDS011;53133;52.862;6.602;2022-11-15T08:59:26;31.55;;;20.40;;
66327;SDS011;53133;52.862;6.602;2022-11-15T09:01:51;31.42;;;20.13;;
66327;SDS011;53133;52.862;6.602;2022-11-15T09:04:17;33.53;;;19.40;;
66327;SDS011;53133;52.862;6.602;2022-11-15T09:06:43;33.50;;;19.45;;
66327;SDS011;53133;52.862;6.602;2022-11-15T09:09:08;31.80;;;20.00;;
66327;SDS011;53133;52.862;6.602;2022-11-15T09:11:34;36.03;;;20.80;;
66327;SDS011;53133;52.862;6.602;2022-11-15T09:13:59;32.47;;;19.20;;
66327;SDS011;53133;52.862;6.602;2022-11-15T09:16:25;31.48;;;19.63;;
66327;SDS011;53133;52.862;6.602;2022-11-15T09:18:52;31.67;;;18.88;;
66327;SDS011;53133;52.862;6.602;2022-11-15T09:21:18;30.67;;;19.63;;
66327;SDS011;53133;52.862;6.602;2022-11-15T09:23:44;33.00;;;20.35;;
66327;SDS011;53133;52.862;6.602;2022-11-15T09:26:09;30.63;;;19.40;;
66327;SDS011;53133;52.862;6.602;2022-11-15T09:28:35;27.85;;;18.50;;
66327;SDS011;53133;52.862;6.602;2022-11-15T09:31:02;28.60;;;19.08;;
66327;SDS011;53133;52.862;6.602;2022-11-15T09:33:29;28.58;;;18.45;;
66327;SDS011;53133;52.862;6.602;2022-11-15T09:35:59;27.88;;;18.42;;
66327;SDS011;53133;52.862;6.602;2022-11-15T09:38:31;28.85;;;17.95;;
66327;SDS011;53133;52.862;6.602;2022-11-15T09:41:16;28.90;;;18.80;;
66327;SDS011;53133;52.862;6.602;2022-11-15T09:43:52;24.88;;;16.92;;
66327;SDS011;53133;52.862;6.602;2022-11-15T09:46:51;26.15;;;17.98;;
66327;SDS011;53133;52.862;6.602;2022-11-15T09:49:21;27.48;;;17.40;;
66327;SDS011;53133;52.862;6.602;2022-11-15T09:51:51;26.98;;;17.27;;
66327;SDS011;53133;52.862;6.602;2022-11-15T09:54:35;24.40;;;16.67;;
66327;SDS011;53133;52.862;6.602;2022-11-15T09:57:19;24.52;;;16.23;;
66327;SDS011;53133;52.862;6.602;2022-11-15T10:02:43;24.60;;;16.50;;
66327;SDS011;53133;52.862;6.602;2022-11-15T10:05:25;21.90;;;15.10;;
66327;SDS011;53133;52.862;6.602;2022-11-15T10:07:59;24.00;;;15.88;;
66327;SDS011;53133;52.862;6.602;2022-11-15T10:10:49;22.08;;;14.95;;
66327;SDS011;53133;52.862;6.602;2022-11-15T10:13:26;21.02;;;14.52;;
66327;SDS011;53133;52.862;6.602;2022-11-15T10:16:12;23.10;;;15.73;;
66327;SDS011;53133;52.862;6.602;2022-11-15T10:19:01;22.45;;;16.88;;
66327;SDS011;53133;52.862;6.602;2022-11-15T10:24:46;21.80;;;14.40;;
66327;SDS011;53133;52.862;6.602;2022-11-15T10:27:16;22.17;;;16.00;;
66327;SDS011;53133;52.862;6.602;2022-11-15T10:29:47;20.95;;;14.88;;
66327;SDS011;53133;52.862;6.602;2022-11-15T10:32:15;20.48;;;15.10;;
66327;SDS011;53133;52.862;6.602;2022-11-15T10:34:42;20.50;;;14.50;;
66327;SDS011;53133;52.862;6.602;2022-11-15T10:37:08;22.20;;;14.82;;
66327;SDS011;53133;52.862;6.602;2022-11-15T10:39:34;19.85;;;15.27;;
66327;SDS011;53133;52.862;6.602;2022-11-15T10:42:22;24.33;;;17.13;;
66327;SDS011;53133;52.862;6.602;2022-11-15T10:44:52;24.23;;;15.75;;
66327;SDS011;53133;52.862;6.602;2022-11-15T10:49:59;18.60;;;13.60;;
66327;SDS011;53133;52.862;6.602;2022-11-15T10:52:31;19.02;;;13.23;;
66327;SDS011;53133;52.862;6.602;2022-11-15T10:55:01;17.95;;;13.30;;
66327;SDS011;53133;52.862;6.602;2022-11-15T10:58:35;15.07;;;11.75;;
66327;SDS011;53133;52.862;6.602;2022-11-15T11:00:52;13.98;;;10.35;;
66327;SDS011;53133;52.862;6.602;2022-11-15T11:06:07;20.67;;;9.55;;
66327;SDS011;53133;52.862;6.602;2022-11-15T11:08:40;15.98;;;9.80;;
66327;SDS011;53133;52.862;6.602;2022-11-15T11:11:22;11.82;;;9.73;;
66327;SDS011;53133;52.862;6.602;2022-11-15T11:13:48;12.90;;;8.23;;
66327;SDS011;53133;52.862;6.602;2022-11-15T11:21:14;12.70;;;8.73;;
66327;SDS011;53133;52.862;6.602;2022-11-15T11:26:40;12.60;;;8.43;;
66327;SDS011;53133;52.862;6.602;2022-11-15T11:29:25;10.40;;;7.50;;
66327;SDS011;53133;52.862;6.602;2022-11-15T11:32:05;12.40;;;7.88;;
66327;SDS011;53133;52.862;6.602;2022-11-15T11:40:16;9.05;;;6.38;;
66327;SDS011;53133;52.862;6.602;2022-11-15T11:50:45;9.48;;;6.90;;
66327;SDS011;53133;52.862;6.602;2022-11-15T11:53:27;10.30;;;7.13;;
66327;SDS011;53133;52.862;6.602;2022-11-15T11:56:14;12.77;;;7.07;;
66327;SDS011;53133;52.862;6.602;2022-11-15T11:58:46;10.60;;;7.07;;
66327;SDS011;53133;52.862;6.602;2022-11-15T12:01:18;11.30;;;6.80;;
66327;SDS011;53133;52.862;6.602;2022-11-15T12:06:39;10.02;;;7.30;;
66327;SDS011;53133;52.862;6.602;2022-11-15T12:15:02;13.15;;;7.10;;
66327;SDS011;53133;52.862;6.602;2022-11-15T12:17:36;10.88;;;6.70;;
66327;SDS011;53133;52.862;6.602;2022-11-15T12:20:05;11.13;;;6.53;;
66327;SDS011;53133;52.862;6.602;2022-11-15T12:28:19;9.27;;;5.68;;
66327;SDS011;53133;52.862;6.602;2022-11-15T12:31:02;7.75;;;5.55;;
66327;SDS011;53133;52.862;6.602;2022-11-15T12:33:41;12.57;;;5.82;;
66327;SDS011;53133;52.862;6.602;2022-11-15T12:41:26;10.00;;;5.55;;
66327;SDS011;53133;52.862;6.602;2022-11-15T12:43:56;7.10;;;4.30;;
66327;SDS011;53133;52.862;6.602;2022-11-15T12:47:00;7.22;;;4.65;;
66327;SDS011;53133;52.862;6.602;2022-11-15T12:49:10;6.63;;;4.38;;
66327;SDS011;53133;52.862;6.602;2022-11-15T13:22:42;8.20;;;3.60;;
66327;SDS011;53133;52.862;6.602;2022-11-15T13:25:27;7.75;;;3.80;;
66327;SDS011;53133;52.862;6.602;2022-11-15T13:27:58;4.68;;;3.10;;
66327;SDS011;53133;52.862;6.602;2022-11-15T13:30:27;7.13;;;3.00;;
66327;SDS011;53133;52.862;6.602;2022-11-15T13:32:54;3.80;;;2.65;;
66327;SDS011;53133;52.862;6.602;2022-11-15T13:35:22;6.13;;;2.70;;
66327;SDS011;53133;52.862;6.602;2022-11-15T13:37:50;5.10;;;2.67;;
66327;SDS011;53133;52.862;6.602;2022-11-15T13:42:42;9.40;;;4.60;;
66327;SDS011;53133;52.862;6.602;2022-11-15T13:45:11;8.05;;;3.90;;
66327;SDS011;53133;52.862;6.602;2022-11-15T13:47:40;6.63;;;4.32;;
66327;SDS011;53133;52.862;6.602;2022-11-15T13:50:05;6.40;;;3.22;;
66327;SDS011;53133;52.862;6.602;2022-11-15T13:52:35;4.43;;;2.50;;
66327;SDS011;53133;52.862;6.602;2022-11-15T13:55:04;9.43;;;5.45;;
66327;SDS011;53133;52.862;6.602;2022-11-15T14:05:40;4.57;;;2.45;;
66327;SDS011;53133;52.862;6.602;2022-11-15T14:08:21;4.00;;;2.95;;
66327;SDS011;53133;52.862;6.602;2022-11-15T14:10:48;6.22;;;2.95;;
66327;SDS011;53133;52.862;6.602;2022-11-15T14:16:43;2.40;;;2.13;;
66327;SDS011;53133;52.862;6.602;2022-11-15T14:27:37;6.28;;;3.10;;
66327;SDS011;53133;52.862;6.602;2022-11-15T14:30:04;8.98;;;3.42;;
66327;SDS011;53133;52.862;6.602;2022-11-15T14:32:40;6.07;;;3.60;;
66327;SDS011;53133;52.862;6.602;2022-11-15T14:35:14;5.82;;;3.65;;
66327;SDS011;53133;52.862;6.602;2022-11-15T14:37:42;4.55;;;3.85;;
66327;SDS011;53133;52.862;6.602;2022-11-15T14:40:08;5.18;;;4.18;;
66327;SDS011;53133;52.862;6.602;2022-11-15T14:42:38;4.57;;;3.20;;
66327;SDS011;53133;52.862;6.602;2022-11-15T14:45:09;4.40;;;3.30;;
66327;SDS011;53133;52.862;6.602;2022-11-15T14:47:45;8.10;;;3.92;;
66327;SDS011;53133;52.862;6.602;2022-11-15T14:50:12;5.28;;;4.07;;
66327;SDS011;53133;52.862;6.602;2022-11-15T14:52:39;5.53;;;4.32;;
66327;SDS011;53133;52.862;6.602;2022-11-15T14:55:11;23.08;;;19.67;;
66327;SDS011;53133;52.862;6.602;2022-11-15T14:57:44;164.82;;;96.78;;
66327;SDS011;53133;52.862;6.602;2022-11-15T15:00:10;23.98;;;17.08;;
66327;SDS011;53133;52.862;6.602;2022-11-15T15:02:36;15.93;;;13.30;;
66327;SDS011;53133;52.862;6.602;2022-11-15T15:05:10;16.42;;;12.88;;
66327;SDS011;53133;52.862;6.602;2022-11-15T15:07:39;15.52;;;13.80;;
66327;SDS011;53133;52.862;6.602;2022-11-15T15:10:05;13.00;;;10.32;;
66327;SDS011;53133;52.862;6.602;2022-11-15T15:12:31;13.18;;;11.98;;
66327;SDS011;53133;52.862;6.602;2022-11-15T15:14:56;12.25;;;9.15;;
66327;SDS011;53133;52.862;6.602;2022-11-15T15:17:24;8.98;;;7.95;;
66327;SDS011;53133;52.862;6.602;2022-11-15T15:19:50;8.70;;;7.80;;
66327;SDS011;53133;52.862;6.602;2022-11-15T15:22:16;8.10;;;6.68;;
66327;SDS011;53133;52.862;6.602;2022-11-15T15:24:43;9.77;;;8.30;;
66327;SDS011;53133;52.862;6.602;2022-11-15T15:27:10;7.60;;;6.05;;
66327;SDS011;53133;52.862;6.602;2022-11-15T15:29:37;7.85;;;7.05;;
66327;SDS011;53133;52.862;6.602;2022-11-15T15:32:02;8.00;;;7.20;;
66327;SDS011;53133;52.862;6.602;2022-11-15T15:34:28;7.88;;;6.60;;
66327;SDS011;53133;52.862;6.602;2022-11-15T15:37:12;32.45;;;29.27;;
66327;SDS011;53133;52.862;6.602;2022-11-15T15:39:53;12.43;;;11.13;;
66327;SDS011;53133;52.862;6.602;2022-11-15T15:42:20;8.93;;;6.97;;
66327;SDS011;53133;52.862;6.602;2022-11-15T15:44:46;8.85;;;7.40;;
66327;SDS011;53133;52.862;6.602;2022-11-15T15:47:19;14.13;;;12.77;;
66327;SDS011;53133;52.862;6.602;2022-11-15T15:49:46;14.23;;;10.50;;
66327;SDS011;53133;52.862;6.602;2022-11-15T15:52:12;39.95;;;30.15;;
66327;SDS011;53133;52.862;6.602;2022-11-15T15:54:38;20.35;;;13.27;;
66327;SDS011;53133;52.862;6.602;2022-11-15T15:57:05;20.25;;;14.00;;
66327;SDS011;53133;52.862;6.602;2022-11-15T15:59:31;10.20;;;7.82;;
66327;SDS011;53133;52.862;6.602;2022-11-15T16:01:57;8.82;;;6.63;;
66327;SDS011;53133;52.862;6.602;2022-11-15T16:04:22;12.10;;;8.88;;
66327;SDS011;53133;52.862;6.602;2022-11-15T16:06:48;19.90;;;17.08;;
66327;SDS011;53133;52.862;6.602;2022-11-15T16:09:17;13.77;;;10.98;;
66327;SDS011;53133;52.862;6.602;2022-11-15T16:12:03;21.67;;;16.40;;
66327;SDS011;53133;52.862;6.602;2022-11-15T16:14:29;8.15;;;5.75;;
66327;SDS011;53133;52.862;6.602;2022-11-15T16:16:55;12.20;;;9.32;;
66327;SDS011;53133;52.862;6.602;2022-11-15T16:19:20;13.80;;;10.60;;
66327;SDS011;53133;52.862;6.602;2022-11-15T16:21:46;10.20;;;8.27;;
66327;SDS011;53133;52.862;6.602;2022-11-15T16:24:11;13.57;;;10.45;;
66327;SDS011;53133;52.862;6.602;2022-11-15T16:26:37;18.80;;;14.32;;
66327;SDS011;53133;52.862;6.602;2022-11-15T16:29:03;48.05;;;33.38;;
66327;SDS011;53133;52.862;6.602;2022-11-15T16:31:28;12.30;;;7.80;;
66327;SDS011;53133;52.862;6.602;2022-11-15T16:33:54;17.92;;;9.63;;
66327;SDS011;53133;52.862;6.602;2022-11-15T16:36:24;50.95;;;28.73;;
66327;SDS011;53133;52.862;6.602;2022-11-15T16:38:50;6.88;;;5.10;;
66327;SDS011;53133;52.862;6.602;2022-11-15T16:41:17;11.77;;;9.40;;
66327;SDS011;53133;52.862;6.602;2022-11-15T16:43:46;8.15;;;4.60;;
66327;SDS011;53133;52.862;6.602;2022-11-15T16:46:14;4.45;;;3.65;;
66327;SDS011;53133;52.862;6.602;2022-11-15T16:48:46;6.65;;;4.90;;
66327;SDS011;53133;52.862;6.602;2022-11-15T16:51:12;12.18;;;10.93;;